Time;durP1;ratioP1;P1;durP2;ratioP2;P2;SDS_P1;SDS_P2;PMS_P1;PMS_P2;Temp;Humidity;BMP_temperature;BMP_pressure;BME280_temperature;BME280_humidity;BME280_pressure;Samples;Min_cycle;Max_cycle;Signal;HPM_P1;HPM_P2
2022/07/20 00:01:24;;;;;;;5.88;3.60;;;;;;;30.64;27.63;101479.31;5027011;28;96981;-70
2022/07/20 00:03:51;;;;;;;6.32;3.70;;;;;;;30.63;28.06;101486.66;5024021;27;99129;-70
2022/07/20 00:06:17;;;;;;;4.20;3.50;;;;;;;30.58;27.89;101483.59;5027151;27;101588;-71
2022/07/20 00:11:27;;;;;;;10.35;4.07;;;;;;;30.53;28.20;101475.03;5027322;27;96820;-70
2022/07/20 00:13:55;;;;;;;10.07;3.95;;;;;;;30.56;28.01;101477.44;5022929;27;101917;-71
2022/07/20 00:16:23;;;;;;;6.20;4.20;;;;;;;30.49;28.13;101479.97;5023485;28;98875;-70
2022/07/20 00:18:51;;;;;;;6.68;3.65;;;;;;;30.26;28.01;101478.81;5027250;27;96859;-70
2022/07/20 00:21:18;;;;;;;5.65;3.80;;;;;;;30.23;28.32;101492.78;5023988;27;96907;-70
2022/07/20 00:23:44;;;;;;;4.57;3.97;;;;;;;30.35;28.06;101480.56;5026241;27;98944;-70
2022/07/20 00:26:11;;;;;;;7.85;3.63;;;;;;;30.25;28.78;101493.50;5024525;27;98831;-70
2022/07/20 00:28:37;;;;;;;7.93;3.78;;;;;;;30.19;28.95;101482.41;5026000;27;97180;-71
2022/07/20 00:31:04;;;;;;;11.55;4.10;;;;;;;30.02;29.00;101484.16;5021973;27;96838;-71
2022/07/20 00:33:31;;;;;;;8.13;3.90;;;;;;;30.03;29.13;101492.19;5026680;27;102266;-71
2022/07/20 00:35:59;;;;;;;4.60;3.80;;;;;;;29.82;29.19;101479.94;5022126;27;98777;-72
2022/07/20 00:38:25;;;;;;;5.60;3.90;;;;;;;29.75;29.48;101473.44;5028224;27;98257;-71
2022/07/20 00:40:52;;;;;;;5.78;3.75;;;;;;;29.65;29.78;101477.13;5022264;27;97857;-73
2022/07/20 00:43:18;;;;;;;7.57;3.90;;;;;;;29.73;29.77;101478.19;5029103;27;99532;-71
2022/07/20 00:45:46;;;;;;;5.25;3.53;;;;;;;29.79;29.54;101464.78;5028258;27;98009;-71
2022/07/20 00:48:12;;;;;;;5.03;3.70;;;;;;;29.73;29.99;101478.19;5030069;27;96843;-71
2022/07/20 00:50:39;;;;;;;8.73;4.07;;;;;;;29.58;30.37;101477.94;5026734;27;96942;-72
2022/07/20 00:53:10;;;;;;;5.25;3.75;;;;;;;29.53;30.40;101474.84;5024152;27;99452;-70
2022/07/20 00:55:37;;;;;;;7.03;4.05;;;;;;;29.50;30.66;101469.69;5027239;27;98756;-71
2022/07/20 00:58:03;;;;;;;8.60;4.13;;;;;;;29.49;30.72;101471.56;5023448;27;97968;-71
2022/07/20 01:00:30;;;;;;;8.75;4.10;;;;;;;29.50;30.59;101467.84;5025802;27;97469;-71
2022/07/20 01:02:56;;;;;;;5.95;4.05;;;;;;;29.36;31.28;101467.56;5025147;27;98987;-71
2022/07/20 01:05:24;;;;;;;6.20;4.00;;;;;;;29.35;31.15;101461.25;5028763;27;99887;-71
2022/07/20 01:07:51;;;;;;;7.47;4.05;;;;;;;29.26;31.35;101462.19;5025692;28;96850;-71
2022/07/20 01:10:20;;;;;;;7.43;3.85;;;;;;;29.13;31.33;101456.28;5027168;27;96839;-71
2022/07/20 01:12:48;;;;;;;7.63;4.00;;;;;;;29.21;31.12;101450.94;5021703;27;103566;-70
2022/07/20 01:15:14;;;;;;;6.45;4.22;;;;;;;29.04;31.17;101447.19;5018350;27;102158;-70
2022/07/20 01:17:41;;;;;;;6.22;4.07;;;;;;;28.93;31.54;101440.16;5027045;27;96906;-69
2022/07/20 01:20:11;;;;;;;7.00;3.85;;;;;;;28.90;31.68;101439.59;5023347;27;96835;-69
2022/07/20 01:22:38;;;;;;;10.85;3.85;;;;;;;28.73;31.88;101437.72;5026252;27;99313;-69
2022/07/20 01:25:05;;;;;;;5.57;4.25;;;;;;;28.75;31.94;101444.72;5015884;27;98503;-70
2022/07/20 01:27:32;;;;;;;6.63;3.75;;;;;;;28.74;32.18;101440.31;5023134;27;96781;-70
2022/07/20 01:29:59;;;;;;;9.45;4.60;;;;;;;28.81;31.90;101451.44;5029070;27;96905;-69
2022/07/20 01:32:26;;;;;;;8.40;3.78;;;;;;;28.92;31.77;101449.31;5025506;27;99682;-69
2022/07/20 01:34:52;;;;;;;6.95;3.97;;;;;;;28.99;31.63;101448.69;5019572;27;98970;-70
2022/07/20 01:37:18;;;;;;;8.70;3.65;;;;;;;29.05;31.57;101448.06;5023236;27;96796;-70
2022/07/20 01:39:46;;;;;;;13.32;4.40;;;;;;;29.03;31.57;101448.22;5020909;27;97345;-70
2022/07/20 01:42:12;;;;;;;7.35;4.47;;;;;;;28.88;31.39;101453.34;5021350;27;99232;-70
2022/07/20 01:44:39;;;;;;;8.38;4.45;;;;;;;29.01;31.14;101447.53;5020747;27;99111;-70
2022/07/20 01:47:05;;;;;;;8.80;4.30;;;;;;;29.00;31.19;101450.41;5025262;27;97392;-69
2022/07/20 01:49:32;;;;;;;6.70;4.07;;;;;;;28.77;31.35;101455.44;5023645;27;98041;-69
2022/07/20 01:51:58;;;;;;;6.47;4.43;;;;;;;28.81;31.49;101452.28;5018242;27;99596;-69
2022/07/20 01:54:24;;;;;;;10.60;4.30;;;;;;;28.91;31.47;101455.75;5020303;27;97760;-69
2022/07/20 01:56:52;;;;;;;6.80;4.20;;;;;;;28.89;31.85;101452.34;5026714;28;97096;-69
2022/07/20 01:59:19;;;;;;;8.25;4.53;;;;;;;28.84;31.85;101448.38;5024802;27;96956;-70
2022/07/20 02:01:45;;;;;;;7.78;5.32;;;;;;;28.58;32.01;101450.13;5027594;27;99366;-70
2022/07/20 02:04:11;;;;;;;5.15;3.85;;;;;;;28.90;31.36;101443.16;5029059;27;98910;-71
2022/07/20 02:06:38;;;;;;;8.65;5.18;;;;;;;28.80;31.34;101439.69;5021822;28;96905;-69
2022/07/20 02:09:04;;;;;;;5.82;4.05;;;;;;;28.75;31.44;101444.72;5023003;27;96890;-70
2022/07/20 02:11:31;;;;;;;5.15;3.58;;;;;;;28.81;31.64;101444.13;5021592;27;98859;-70
2022/07/20 02:13:58;;;;;;;6.10;4.47;;;;;;;28.74;31.28;101429.44;5018434;27;99618;-70
2022/07/20 02:16:25;;;;;;;8.35;5.38;;;;;;;28.72;31.33;101434.13;5016089;27;97129;-70
2022/07/20 02:18:53;;;;;;;10.65;5.13;;;;;;;28.86;31.09;101430.03;5026158;27;96795;-70
2022/07/20 02:21:22;;;;;;;8.25;4.03;;;;;;;28.94;31.23;101427.41;5019823;27;97949;-70
2022/07/20 02:23:48;;;;;;;7.43;5.22;;;;;;;28.86;31.43;101427.31;5025235;27;97673;-69
2022/07/20 02:26:16;;;;;;;8.70;4.93;;;;;;;28.88;30.79;101433.47;5021088;28;97162;-70
2022/07/20 02:28:43;;;;;;;11.50;4.43;;;;;;;28.90;30.55;101431.44;5027184;27;97464;-70
2022/07/20 02:31:11;;;;;;;8.32;4.72;;;;;;;28.95;30.18;101431.81;5019257;28;99477;-70
2022/07/20 02:33:38;;;;;;;9.73;4.63;;;;;;;28.93;30.35;101422.97;5026327;28;96822;-70
2022/07/20 02:36:05;;;;;;;10.25;4.90;;;;;;;28.91;30.28;101424.97;5020057;27;97458;-70
2022/07/20 02:38:32;;;;;;;8.27;5.00;;;;;;;28.74;30.32;101434.88;5027327;27;96783;-69
2022/07/20 02:40:58;;;;;;;9.80;4.28;;;;;;;28.88;30.16;101431.56;5024448;28;98918;-70
2022/07/20 02:43:25;;;;;;;7.70;4.63;;;;;;;28.87;30.47;101429.91;5027396;27;98779;-69
2022/07/20 02:45:51;;;;;;;7.25;5.35;;;;;;;28.87;30.30;101429.03;5018059;28;96841;-70
2022/07/20 02:48:19;;;;;;;6.03;4.18;;;;;;;28.72;30.63;101422.41;5026057;27;96936;-70
2022/07/20 02:50:45;;;;;;;21.13;4.82;;;;;;;28.79;30.54;101427.09;5020520;27;98997;-70
2022/07/20 02:53:13;;;;;;;7.97;4.80;;;;;;;28.64;30.52;101428.59;5028844;27;99027;-70
2022/07/20 02:55:42;;;;;;;10.35;5.47;;;;;;;28.71;30.71;101428.84;5023923;27;97254;-69
2022/07/20 02:58:09;;;;;;;10.13;4.40;;;;;;;28.78;30.49;101419.94;5020361;27;97805;-71
2022/07/20 03:00:36;;;;;;;7.75;5.28;;;;;;;28.48;31.23;101428.47;5025983;27;99074;-70
2022/07/20 03:03:03;;;;;;;9.70;5.47;;;;;;;28.70;30.92;101425.25;5024764;27;99192;-70
2022/07/20 03:05:31;;;;;;;8.70;5.13;;;;;;;28.69;31.01;101425.41;5025252;27;97514;-71
2022/07/20 03:07:58;;;;;;;13.32;6.75;;;;;;;28.77;31.03;101420.94;5024758;27;97081;-70
2022/07/20 03:10:24;;;;;;;13.93;5.22;;;;;;;28.69;30.99;101425.41;5028438;27;100003;-71
2022/07/20 03:12:51;;;;;;;10.40;4.72;;;;;;;28.59;31.07;101428.22;5027638;27;97440;-71
2022/07/20 03:15:18;;;;;;;8.15;5.53;;;;;;;28.41;31.57;101430.06;5019172;27;96855;-71
2022/07/20 03:17:47;;;;;;;8.50;4.97;;;;;;;28.52;31.28;101430.69;5024333;27;97029;-70
2022/07/20 03:20:15;;;;;;;13.75;5.60;;;;;;;28.30;31.75;101424.84;5023011;28;100451;-70
2022/07/20 03:22:43;;;;;;;7.90;5.15;;;;;;;28.37;31.58;101432.22;5031350;27;97616;-70
2022/07/20 03:25:10;;;;;;;11.93;5.68;;;;;;;28.46;31.56;101436.75;5028608;27;97260;-71
2022/07/20 03:27:37;;;;;;;8.10;5.18;;;;;;;28.45;31.60;101434.19;5029412;27;97289;-71
2022/07/20 03:30:05;;;;;;;10.65;5.35;;;;;;;28.13;32.14;101437.34;5028392;27;98801;-70
2022/07/20 03:32:31;;;;;;;7.32;5.05;;;;;;;28.40;31.75;101440.09;5027623;27;99417;-71
2022/07/20 03:34:58;;;;;;;12.10;5.50;;;;;;;28.25;31.99;101440.75;5022826;27;96854;-69
2022/07/20 03:37:24;;;;;;;8.85;5.60;;;;;;;28.42;32.08;101442.66;5031000;27;98502;-70
2022/07/20 03:39:52;;;;;;;9.48;5.45;;;;;;;28.59;31.73;101446.41;5022035;28;99037;-69
2022/07/20 03:42:19;;;;;;;10.48;4.95;;;;;;;28.57;31.72;101449.25;5026322;27;98895;-69
2022/07/20 03:44:45;;;;;;;8.45;5.70;;;;;;;28.54;31.63;101453.16;5023849;27;96881;-69
2022/07/20 03:47:12;;;;;;;7.00;5.07;;;;;;;28.67;31.61;101452.78;5026600;27;97257;-70
2022/07/20 03:49:38;;;;;;;10.43;5.63;;;;;;;28.68;31.85;101454.50;5026973;28;101746;-70
2022/07/20 03:52:05;;;;;;;8.55;5.32;;;;;;;28.62;31.80;101446.94;5027081;27;99195;-69
2022/07/20 03:54:32;;;;;;;10.60;4.88;;;;;;;28.40;32.08;101440.09;5022270;28;97039;-69
2022/07/20 03:57:00;;;;;;;16.05;6.22;;;;;;;28.55;32.03;101448.59;5025830;27;96991;-70
2022/07/20 03:59:26;;;;;;;7.75;5.43;;;;;;;28.61;31.83;101456.13;5029437;27;97423;-70
2022/07/20 04:01:52;;;;;;;9.60;5.43;;;;;;;28.61;31.70;101456.13;5025838;27;99216;-69
2022/07/20 04:04:19;;;;;;;8.88;5.30;;;;;;;28.56;31.77;101453.00;5026870;27;96987;-69
2022/07/20 04:06:45;;;;;;;9.68;5.72;;;;;;;28.47;32.15;101460.22;5025399;27;97168;-70
2022/07/20 04:09:12;;;;;;;15.50;5.45;;;;;;;28.54;32.43;101461.31;5028781;27;99483;-70
2022/07/20 04:11:38;;;;;;;7.60;4.95;;;;;;;28.58;32.61;101461.00;5026552;27;98973;-70
2022/07/20 04:14:07;;;;;;;10.77;5.45;;;;;;;28.56;32.83;101458.44;5025102;27;97139;-70
2022/07/20 04:16:33;;;;;;;10.68;5.80;;;;;;;28.58;32.84;101459.13;5029870;27;98281;-70
2022/07/20 04:18:59;;;;;;;11.60;5.55;;;;;;;28.65;32.68;101452.06;5027117;28;98301;-70
2022/07/20 04:21:26;;;;;;;9.50;5.05;;;;;;;28.70;32.52;101457.91;5028151;27;98809;-70
2022/07/20 04:23:52;;;;;;;8.95;5.85;;;;;;;28.73;32.23;101460.31;5022040;27;97026;-71
2022/07/20 04:26:19;;;;;;;9.27;5.53;;;;;;;28.78;32.09;101468.03;5023955;27;97015;-70
2022/07/20 04:28:45;;;;;;;10.10;5.25;;;;;;;28.86;32.08;101459.97;5024377;27;99146;-70
2022/07/20 04:31:13;;;;;;;12.98;6.40;;;;;;;28.60;32.14;101459.00;5024002;28;98903;-71
2022/07/20 04:33:40;;;;;;;12.45;5.75;;;;;;;28.86;31.87;101463.53;5025193;27;98193;-69
2022/07/20 04:36:07;;;;;;;8.35;5.65;;;;;;;28.95;31.69;101461.72;5026654;27;98600;-69
2022/07/20 04:38:33;;;;;;;9.15;5.43;;;;;;;29.00;31.91;101461.28;5030811;27;98508;-69
2022/07/20 04:40:59;;;;;;;13.85;5.68;;;;;;;28.85;32.10;101475.44;5025362;27;102641;-69
2022/07/20 04:43:26;;;;;;;12.82;6.20;;;;;;;28.86;32.07;101466.25;5026848;27;97555;-69
2022/07/20 04:45:52;;;;;;;9.48;5.45;;;;;;;29.17;31.52;101474.00;5022914;27;96883;-69
2022/07/20 04:48:20;;;;;;;11.55;6.18;;;;;;;29.16;31.47;101475.00;5024147;27;99521;-70
2022/07/20 04:50:46;;;;;;;10.65;6.15;;;;;;;29.20;32.02;101471.84;5030928;27;101015;-70
2022/07/20 04:53:13;;;;;;;16.10;6.05;;;;;;;29.24;32.43;101467.78;5025459;27;96843;-69
2022/07/20 04:55:39;;;;;;;8.07;5.63;;;;;;;29.19;32.03;101467.41;5027273;27;96812;-70
2022/07/20 04:58:06;;;;;;;14.70;5.82;;;;;;;29.22;31.71;101466.22;5022621;27;99397;-69
2022/07/20 05:00:32;;;;;;;9.13;5.75;;;;;;;29.34;31.55;101465.00;5026454;27;99316;-69
2022/07/20 05:02:59;;;;;;;16.60;5.78;;;;;;;29.10;31.21;101462.03;5025607;28;96836;-70
2022/07/20 05:05:27;;;;;;;15.80;6.47;;;;;;;29.32;30.94;101465.13;5023226;27;97548;-70
2022/07/20 05:07:53;;;;;;;12.98;5.35;;;;;;;29.38;31.03;101462.81;5023972;27;98865;-69
2022/07/20 05:10:20;;;;;;;15.52;6.55;;;;;;;29.69;30.79;101467.63;5021009;27;99139;-69
2022/07/20 05:12:46;;;;;;;13.57;6.10;;;;;;;29.75;30.44;101470.69;5021752;28;97047;-69
2022/07/20 05:15:12;;;;;;;16.13;6.85;;;;;;;29.88;29.84;101462.94;5024357;27;97448;-70
2022/07/20 05:17:39;;;;;;;12.60;6.05;;;;;;;30.44;29.51;101465.97;5023986;27;98883;-70
2022/07/20 05:20:06;;;;;;;11.20;6.15;;;;;;;30.49;29.03;101471.78;5026005;27;97943;-70
2022/07/20 05:22:35;;;;;;;15.30;5.82;;;;;;;30.70;28.36;101470.47;5026995;27;97100;-70
2022/07/20 05:25:02;;;;;;;13.45;6.15;;;;;;;30.60;28.88;101476.06;5026363;27;97655;-69
2022/07/20 05:27:28;;;;;;;10.88;6.22;;;;;;;30.44;29.31;101478.72;5025983;27;98989;-69
2022/07/20 05:29:54;;;;;;;10.65;6.00;;;;;;;30.08;29.61;101475.34;5027420;27;97908;-71
2022/07/20 05:32:21;;;;;;;11.80;6.13;;;;;;;30.44;28.71;101471.41;5027228;27;97069;-71
2022/07/20 05:34:47;;;;;;;9.23;5.85;;;;;;;30.29;29.31;101470.31;5023622;27;96848;-70
2022/07/20 05:37:14;;;;;;;12.82;6.13;;;;;;;30.43;28.96;101472.41;5017960;27;98855;-69
2022/07/20 05:39:42;;;;;;;11.73;6.00;;;;;;;30.34;29.09;101478.00;5020715;27;98906;-69
2022/07/20 05:42:08;;;;;;;13.38;6.63;;;;;;;30.39;28.91;101484.66;5016723;27;98007;-71
2022/07/20 05:44:35;;;;;;;12.75;6.32;;;;;;;30.60;28.90;101475.22;5025466;27;97804;-70
2022/07/20 05:47:02;;;;;;;12.05;5.53;;;;;;;30.79;28.90;101483.94;5017999;27;98994;-70
2022/07/20 05:49:28;;;;;;;15.80;5.97;;;;;;;30.87;28.42;101478.50;5020960;27;98548;-70
2022/07/20 05:51:55;;;;;;;16.02;7.07;;;;;;;31.09;28.28;101481.63;5015567;27;98404;-70
2022/07/20 05:54:21;;;;;;;12.90;6.10;;;;;;;31.00;28.68;101482.59;5021764;27;96899;-70
2022/07/20 05:56:49;;;;;;;14.93;6.97;;;;;;;31.17;28.71;101479.78;5021062;27;99351;-70
2022/07/20 05:59:16;;;;;;;16.92;6.93;;;;;;;30.98;29.00;101485.53;5028571;27;97764;-71
2022/07/20 06:01:44;;;;;;;19.92;6.60;;;;;;;31.43;28.46;101484.19;5025471;27;96814;-71
2022/07/20 06:04:11;;;;;;;11.27;6.15;;;;;;;31.73;28.54;101486.22;5022652;28;96877;-71
2022/07/20 06:06:38;;;;;;;13.80;6.40;;;;;;;31.76;28.34;101487.75;5022735;27;101511;-71
2022/07/20 06:09:05;;;;;;;12.98;6.45;;;;;;;31.78;27.98;101481.06;5020815;28;99108;-71
2022/07/20 06:11:31;;;;;;;16.27;6.55;;;;;;;31.96;28.03;101479.00;5026816;27;97311;-70
2022/07/20 06:13:59;;;;;;;18.25;7.03;;;;;;;31.56;28.47;101479.91;5021750;27;98675;-71
2022/07/20 06:16:26;;;;;;;31.10;6.70;;;;;;;31.99;28.36;101481.34;5016668;27;97775;-71
2022/07/20 06:18:52;;;;;;;17.35;6.38;;;;;;;32.25;27.49;101483.84;5020975;27;99200;-71
2022/07/20 06:21:20;;;;;;;14.55;6.55;;;;;;;32.48;27.36;101492.13;5021746;27;96799;-71
2022/07/20 06:23:46;;;;;;;20.52;6.30;;;;;;;32.32;28.01;101483.97;5018651;27;97144;-71
2022/07/20 06:26:12;;;;;;;18.20;7.43;;;;;;;32.51;27.78;101490.88;5016986;27;98408;-71
2022/07/20 06:28:39;;;;;;;30.60;8.48;;;;;;;32.49;27.76;101491.09;5021609;27;98383;-71
2022/07/20 06:31:07;;;;;;;37.15;8.00;;;;;;;33.09;26.67;101493.09;5018016;28;97067;-71
2022/07/20 06:33:33;;;;;;;30.58;7.07;;;;;;;32.87;26.75;101491.22;5024047;27;97473;-70
2022/07/20 06:36:00;;;;;;;33.45;7.90;;;;;;;33.14;26.42;101501.63;5028559;27;98992;-70
2022/07/20 06:38:27;;;;;;;35.17;7.50;;;;;;;32.95;27.02;101504.88;5020608;27;98820;-69
2022/07/20 06:40:54;;;;;;;22.50;6.93;;;;;;;33.36;26.73;101506.25;5025023;27;96976;-73
2022/07/20 06:43:22;;;;;;;19.70;6.72;;;;;;;33.31;26.66;101507.84;5020553;27;97252;-71
2022/07/20 06:45:49;;;;;;;36.45;9.43;;;;;;;32.95;27.04;101510.34;5019569;27;97767;-71
2022/07/20 06:48:17;;;;;;;37.35;9.35;;;;;;;33.09;26.67;101510.38;5021587;28;97879;-71
2022/07/20 06:50:44;;;;;;;19.40;7.82;;;;;;;32.87;26.80;101510.38;5027882;27;96807;-70
2022/07/20 06:53:10;;;;;;;29.23;6.78;;;;;;;32.88;26.79;101514.84;5022501;28;96835;-70
2022/07/20 06:55:37;;;;;;;44.60;7.28;;;;;;;32.75;27.00;101509.97;5028212;27;97556;-70
2022/07/20 06:58:03;;;;;;;41.05;6.70;;;;;;;33.15;26.65;101514.25;5013677;27;98443;-71
2022/07/20 07:00:30;;;;;;;37.58;6.97;;;;;;;33.43;26.21;101517.31;5024576;27;97032;-71
2022/07/20 07:02:56;;;;;;;34.88;6.90;;;;;;;33.53;26.13;101509.72;5016684;27;96865;-70
2022/07/20 07:05:24;;;;;;;18.92;8.27;;;;;;;34.01;25.68;101506.47;5016262;27;98632;-71
2022/07/20 07:07:51;;;;;;;30.10;7.20;;;;;;;34.37;24.89;101502.97;5018121;27;98813;-70
2022/07/20 07:10:17;;;;;;;23.48;6.18;;;;;;;34.34;24.51;101509.69;5025564;27;96830;-70
2022/07/20 07:12:44;;;;;;;28.50;6.70;;;;;;;34.08;25.09;101509.31;5023161;27;96930;-71
2022/07/20 07:15:11;;;;;;;27.73;6.75;;;;;;;34.37;24.82;101503.84;5019136;27;99323;-71
2022/07/20 07:17:37;;;;;;;18.73;6.00;;;;;;;34.10;25.33;101504.50;5022949;27;98905;-71
2022/07/20 07:20:05;;;;;;;27.05;6.70;;;;;;;34.51;24.56;101501.25;5018893;27;98590;-71
2022/07/20 07:22:34;;;;;;;23.83;6.72;;;;;;;34.51;24.95;101509.50;5019785;28;97570;-71
2022/07/20 07:25:01;;;;;;;28.75;6.50;;;;;;;34.29;24.90;101497.59;5018716;27;98145;-71
2022/07/20 07:27:27;;;;;;;16.90;6.03;;;;;;;34.67;23.87;101503.75;5017342;27;98887;-71
2022/07/20 07:29:54;;;;;;;19.38;5.55;;;;;;;34.91;23.48;101499.84;5019470;27;97089;-71
2022/07/20 07:32:20;;;;;;;20.17;6.57;;;;;;;34.82;24.26;101496.38;5024359;28;97136;-71
2022/07/20 07:34:47;;;;;;;27.85;6.53;;;;;;;34.78;23.92;101493.19;5021882;27;98634;-72
2022/07/20 07:37:13;;;;;;;22.40;7.22;;;;;;;34.94;23.96;101500.28;5022507;27;98896;-71
2022/07/20 07:39:41;;;;;;;35.30;6.82;;;;;;;34.63;24.25;101496.97;5027633;27;97114;-71
2022/07/20 07:42:08;;;;;;;32.30;6.85;;;;;;;35.03;23.68;101501.88;5017909;27;99109;-71
2022/07/20 07:44:35;;;;;;;50.03;8.43;;;;;;;35.18;24.09;101497.13;5018829;27;98965;-71
2022/07/20 07:47:01;;;;;;;45.35;7.30;;;;;;;35.12;24.28;101506.16;5022293;27;97977;-71
2022/07/20 07:49:28;;;;;;;21.05;6.72;;;;;;;35.22;23.98;101505.88;5025964;27;97137;-71
2022/07/20 07:51:54;;;;;;;20.25;6.90;;;;;;;35.52;23.18;101503.81;5024237;27;96904;-71
2022/07/20 07:54:21;;;;;;;17.23;6.80;;;;;;;35.61;23.38;101502.63;5016435;27;99468;-70
2022/07/20 07:56:49;;;;;;;40.15;6.80;;;;;;;35.46;23.18;101507.34;5012649;27;98761;-72
2022/07/20 07:59:16;;;;;;;24.15;5.43;;;;;;;35.34;22.87;101500.69;5022017;27;96801;-71
2022/07/20 08:01:43;;;;;;;28.50;5.50;;;;;;;35.72;22.36;101503.97;5019407;27;97071;-70
2022/07/20 08:04:09;;;;;;;26.05;6.88;;;;;;;35.91;22.50;101498.63;5015951;27;102795;-70
2022/07/20 08:06:36;;;;;;;18.35;5.63;;;;;;;36.15;22.25;101494.53;5022332;27;99008;-72
2022/07/20 08:09:03;;;;;;;20.23;5.65;;;;;;;36.15;22.42;101485.44;5027437;27;97105;-71
2022/07/20 08:11:30;;;;;;;26.65;5.70;;;;;;;35.95;22.12;101491.69;5020699;27;97567;-70
2022/07/20 08:14:02;;;;;;;21.48;5.95;;;;;;;36.18;22.17;101490.53;5018910;27;97102;-71
2022/07/20 08:16:30;;;;;;;15.25;5.35;;;;;;;36.24;22.18;101487.81;5024360;27;99322;-71
2022/07/20 08:18:56;;;;;;;13.90;5.38;;;;;;;36.00;22.56;101491.06;5027071;27;98657;-71
2022/07/20 08:21:23;;;;;;;15.85;5.18;;;;;;;36.14;21.99;101497.47;5021488;27;97294;-70
2022/07/20 08:23:49;;;;;;;12.45;5.13;;;;;;;36.39;21.72;101489.56;5021439;27;99482;-71
2022/07/20 08:26:16;;;;;;;15.82;7.00;;;;;;;36.46;21.70;101502.31;5025758;27;101600;-71
2022/07/20 08:28:42;;;;;;;14.55;5.75;;;;;;;36.52;21.98;101501.50;5019447;27;99441;-72
2022/07/20 08:31:10;;;;;;;17.38;5.25;;;;;;;36.69;22.37;101502.03;5024168;27;98542;-71
2022/07/20 08:33:39;;;;;;;15.57;5.40;;;;;;;36.91;21.55;101503.53;5025296;27;101221;-70
2022/07/20 08:36:06;;;;;;;13.30;4.45;;;;;;;36.82;21.38;101495.69;5022306;27;98907;-71
2022/07/20 08:38:33;;;;;;;28.23;7.72;;;;;;;36.99;21.56;101505.25;5021519;27;98658;-71
2022/07/20 08:40:59;;;;;;;20.27;5.53;;;;;;;36.85;21.29;101500.75;5019959;27;97946;-70
2022/07/20 08:43:25;;;;;;;14.15;5.13;;;;;;;37.16;21.33;101497.44;5022036;27;98887;-71
2022/07/20 08:45:52;;;;;;;15.30;6.22;;;;;;;36.98;21.13;101504.41;5019093;27;99290;-72
2022/07/20 08:48:20;;;;;;;14.40;5.38;;;;;;;37.24;20.90;101506.38;5026621;27;97667;-72
2022/07/20 08:50:48;;;;;;;14.27;5.75;;;;;;;37.40;21.13;101499.59;5024327;27;97591;-71
2022/07/20 08:53:15;;;;;;;10.00;4.95;;;;;;;37.03;20.96;101498.25;5022374;27;99115;-71
2022/07/20 08:55:42;;;;;;;12.48;4.90;;;;;;;37.26;20.93;101497.91;5027376;27;98831;-71
2022/07/20 08:58:10;;;;;;;14.10;4.50;;;;;;;37.11;21.17;101503.59;5019688;27;97316;-70
2022/07/20 09:00:38;;;;;;;11.88;4.53;;;;;;;36.89;21.13;101496.56;5025953;27;97015;-71
2022/07/20 09:03:06;;;;;;;11.75;4.85;;;;;;;37.14;20.66;101494.06;5020655;27;99341;-70
2022/07/20 09:05:36;;;;;;;10.27;4.85;;;;;;;37.48;20.46;101500.19;5023094;27;97600;-71
2022/07/20 09:08:04;;;;;;;11.60;4.57;;;;;;;37.32;20.23;101497.91;5022255;27;96770;-71
2022/07/20 09:10:32;;;;;;;11.43;4.65;;;;;;;37.49;20.07;101492.78;5026115;27;97567;-71
2022/07/20 09:13:01;;;;;;;8.32;4.30;;;;;;;37.25;20.21;101490.69;5020395;27;99059;-71
2022/07/20 09:15:33;;;;;;;14.27;4.57;;;;;;;37.53;19.99;101485.81;5024675;27;99241;-70
2022/07/20 09:18:12;;;;;;;8.85;4.50;;;;;;;37.54;19.88;101483.91;5019201;27;98246;-71
2022/07/20 09:20:41;;;;;;;9.93;3.78;;;;;;;37.85;19.96;101479.41;5026417;27;98789;-70
2022/07/20 09:23:10;;;;;;;10.05;3.70;;;;;;;37.34;19.38;101484.75;5020862;27;97835;-71
2022/07/20 09:25:37;;;;;;;18.80;4.10;;;;;;;37.45;19.79;101472.22;5019841;27;98840;-71
2022/07/20 09:28:04;;;;;;;31.88;4.93;;;;;;;37.63;19.68;101477.97;5019073;27;98141;-71
2022/07/20 09:30:31;;;;;;;19.95;4.60;;;;;;;37.68;19.05;101469.06;5023555;27;97631;-71
2022/07/20 09:33:00;;;;;;;12.13;4.85;;;;;;;37.52;19.37;101475.84;5017587;27;98804;-71
2022/07/20 09:35:30;;;;;;;17.55;4.72;;;;;;;37.68;19.55;101477.34;5015311;27;102213;-71
2022/07/20 09:38:00;;;;;;;23.02;4.18;;;;;;;37.63;19.67;101466.09;5020725;27;97258;-71
2022/07/20 09:40:26;;;;;;;11.65;4.10;;;;;;;37.83;19.21;101477.91;5018832;27;96940;-72
2022/07/20 09:42:53;;;;;;;8.05;4.32;;;;;;;37.77;19.21;101474.13;5019153;27;99628;-72
2022/07/20 09:45:21;;;;;;;8.38;3.80;;;;;;;37.91;19.55;101477.69;5024054;27;98209;-69
2022/07/20 09:48:08;;;;;;;10.57;4.00;;;;;;;37.87;18.26;101468.16;5019623;27;97683;-71
2022/07/20 09:50:38;;;;;;;11.90;4.03;;;;;;;38.17;18.62;101457.47;5020048;27;97364;-71
2022/07/20 09:53:07;;;;;;;12.13;3.90;;;;;;;38.06;18.32;101470.06;5014132;27;97731;-70
2022/07/20 09:55:35;;;;;;;11.40;3.55;;;;;;;38.08;18.29;101467.91;5018401;27;98696;-70
2022/07/20 09:58:02;;;;;;;12.60;5.13;;;;;;;38.38;18.38;101468.22;5017238;27;97131;-70
2022/07/20 10:00:30;;;;;;;12.38;4.05;;;;;;;38.31;18.35;101461.03;5020176;27;96991;-71
2022/07/20 10:02:58;;;;;;;15.13;3.78;;;;;;;38.41;18.05;101459.47;5027428;27;98392;-71
2022/07/20 10:05:28;;;;;;;28.08;4.50;;;;;;;38.25;17.51;101460.84;5027820;27;98472;-72
2022/07/20 10:10:43;;;;;;;12.85;3.28;;;;;;;38.05;17.25;101453.72;5019316;27;96848;-71
2022/07/20 10:13:09;;;;;;;15.95;3.40;;;;;;;38.32;17.21;101455.28;5023468;28;101110;-71
2022/07/20 10:15:49;;;;;;;8.30;3.58;;;;;;;38.41;17.41;101458.63;5024742;27;99166;-71
2022/07/20 10:18:15;;;;;;;9.40;3.33;;;;;;;38.15;16.79;101452.16;5026198;27;97010;-72
2022/07/20 10:20:42;;;;;;;9.85;3.00;;;;;;;38.25;16.81;101449.81;5028650;27;97087;-71
2022/07/20 10:23:29;;;;;;;10.27;3.65;;;;;;;38.34;16.98;101452.28;5027788;27;98915;-71
2022/07/20 10:25:57;;;;;;;8.70;3.40;;;;;;;38.25;16.51;101454.47;5027086;27;97510;-70
2022/07/20 10:28:31;;;;;;;30.50;4.43;;;;;;;38.21;16.40;101437.50;5019944;27;98848;-71
2022/07/20 10:31:02;;;;;;;21.23;3.85;;;;;;;38.29;16.25;101445.53;5025100;27;97112;-71
2022/07/20 10:33:28;;;;;;;15.90;3.67;;;;;;;38.32;16.88;101437.88;5023702;27;99438;-71
2022/07/20 10:36:41;;;;;;;10.43;3.75;;;;;;;38.38;16.03;101443.38;5014288;27;98814;-73
2022/07/20 10:38:43;;;;;;;6.00;3.17;;;;;;;38.28;16.33;101443.84;5022526;27;96939;-72
2022/07/20 10:44:27;;;;;;;14.20;3.42;;;;;;;38.34;16.19;101438.50;5018201;28;97127;-70
2022/07/20 10:46:53;;;;;;;8.55;2.67;;;;;;;38.60;15.90;101427.31;5023245;27;98905;-70
2022/07/20 10:49:20;;;;;;;7.60;2.58;;;;;;;38.36;15.45;101423.41;5018489;27;97907;-72
2022/07/20 10:52:25;;;;;;;11.27;2.88;;;;;;;38.50;15.84;101419.53;5027131;27;97245;-71
2022/07/20 10:54:51;;;;;;;13.13;4.43;;;;;;;38.32;15.89;101427.69;5015361;27;99446;-71
2022/07/20 10:57:21;;;;;;;13.38;3.35;;;;;;;38.55;15.74;101422.47;5020089;27;99138;-71
2022/07/20 11:00:00;;;;;;;14.45;3.63;;;;;;;38.53;16.04;101412.75;5020166;27;96889;-71
2022/07/20 11:02:27;;;;;;;24.00;3.65;;;;;;;38.70;16.05;101424.94;5018464;27;97409;-71
2022/07/20 11:04:53;;;;;;;22.70;4.07;;;;;;;38.48;15.74;101413.38;5021921;27;99230;-71
2022/07/20 11:07:28;;;;;;;24.45;4.10;;;;;;;38.60;15.22;101408.00;5019828;27;99935;-71
2022/07/20 11:09:55;;;;;;;14.13;2.80;;;;;;;38.67;15.38;101417.94;5027117;27;97064;-72
2022/07/20 11:12:27;;;;;;;12.40;3.75;;;;;;;38.71;15.33;101406.47;5021838;27;97017;-71
2022/07/20 11:14:54;;;;;;;11.75;3.25;;;;;;;38.63;15.61;101407.56;5027548;27;97582;-72
2022/07/20 11:17:21;;;;;;;8.75;3.03;;;;;;;38.88;15.82;101411.19;5020847;27;98241;-71
2022/07/20 11:19:48;;;;;;;14.45;3.28;;;;;;;38.85;15.98;101411.66;5020160;28;98617;-71
2022/07/20 11:22:15;;;;;;;11.70;2.92;;;;;;;38.86;15.68;101416.09;5020242;27;97215;-71
2022/07/20 11:24:41;;;;;;;7.80;3.20;;;;;;;38.97;15.93;101409.03;5024752;27;97911;-72
2022/07/20 11:27:13;;;;;;;8.93;3.03;;;;;;;38.99;15.40;101401.38;5024604;27;98873;-70
2022/07/20 11:29:47;;;;;;;10.57;3.13;;;;;;;39.12;15.38;101404.03;5022294;27;97551;-71